createdAt,value
2022-07-30T00:00:02.225Z,25.75
2022-07-30T00:02:35.793Z,24.92
2022-07-30T00:05:12.911Z,25.37
2022-07-30T00:07:54.609Z,25.70
2022-07-30T00:10:28.024Z,22.88
2022-07-30T00:13:01.199Z,26.13
2022-07-30T00:15:34.820Z,24.37
2022-07-30T00:18:09.914Z,22.89
2022-07-30T00:20:44.414Z,24.11
2022-07-30T00:23:34.881Z,24.08
2022-07-30T00:26:13.535Z,25.90
2022-07-30T00:29:06.388Z,22.71
2022-07-30T00:31:51.859Z,24.30
2022-07-30T00:37:12.454Z,24.38
2022-07-30T00:39:45.246Z,22.65
2022-07-30T00:42:25.994Z,22.65
2022-07-30T00:44:54.767Z,26.06
2022-07-30T00:47:24.860Z,25.99
2022-07-30T00:49:53.536Z,25.69
2022-07-30T00:52:22.384Z,25.76
2022-07-30T00:55:09.634Z,25.70
2022-07-30T00:57:39.312Z,25.66
2022-07-30T01:00:10.733Z,23.37
2022-07-30T01:02:39.243Z,25.51
2022-07-30T01:05:07.255Z,25.41
2022-07-30T01:07:34.672Z,25.56
2022-07-30T01:10:02.788Z,24.69
2022-07-30T01:12:32.290Z,25.44
2022-07-30T01:15:03.557Z,24.82
2022-07-30T01:17:32.109Z,24.83
2022-07-30T01:20:44.642Z,25.47
2022-07-30T01:23:51.916Z,25.02
2022-07-30T01:26:22.462Z,25.53
2022-07-30T01:28:55.993Z,25.19
2022-07-30T01:31:27.040Z,25.55
2022-07-30T01:34:00.943Z,24.71
2022-07-30T01:36:29.793Z,23.31
2022-07-30T01:39:03.892Z,24.92
2022-07-30T01:41:34.459Z,25.49
2022-07-30T01:44:13.747Z,24.75
2022-07-30T01:46:45.278Z,25.23
2022-07-30T01:49:25.021Z,25.09
2022-07-30T01:52:06.326Z,25.03
2022-07-30T01:54:40.595Z,24.96
2022-07-30T01:57:09.098Z,25.11
2022-07-30T01:59:45.828Z,25.34
2022-07-30T02:02:17.887Z,25.43
2022-07-30T02:04:45.584Z,25.28
2022-07-30T02:07:43.146Z,25.53
2022-07-30T02:10:43.098Z,25.13
2022-07-30T02:13:19.848Z,25.07
2022-07-30T02:16:02.387Z,25.18
2022-07-30T02:18:44.460Z,24.91
2022-07-30T02:21:13.659Z,25.33
2022-07-30T02:23:46.805Z,25.16
2022-07-30T02:26:19.726Z,25.16
2022-07-30T02:28:53.018Z,25.01
2022-07-30T02:31:25.951Z,25.15
2022-07-30T02:33:58.260Z,25.26
2022-07-30T02:36:27.388Z,25.24
2022-07-30T02:38:55.030Z,25.02
2022-07-30T02:41:25.811Z,25.01
2022-07-30T02:43:56.489Z,24.87
2022-07-30T02:46:27.847Z,24.19
2022-07-30T02:48:57.843Z,24.97
2022-07-30T02:51:33.751Z,24.88
2022-07-30T02:54:04.121Z,25.12
2022-07-30T02:56:36.032Z,24.69
2022-07-30T02:59:05.875Z,24.52
2022-07-30T03:01:45.192Z,24.79
2022-07-30T03:04:14.234Z,25.04
2022-07-30T03:06:43.822Z,24.99
2022-07-30T03:09:17.942Z,24.82
2022-07-30T03:11:48.351Z,24.69
2022-07-30T03:14:58.938Z,24.83
2022-07-30T03:17:28.458Z,24.82
2022-07-30T03:19:59.118Z,24.80
2022-07-30T03:23:04.327Z,24.62
2022-07-30T03:26:02.577Z,24.95
2022-07-30T03:28:37.133Z,24.17
2022-07-30T03:31:08.217Z,23.93
2022-07-30T03:33:43.656Z,23.76
2022-07-30T03:36:18.397Z,24.76
2022-07-30T03:38:47.668Z,24.81
2022-07-30T03:41:30.626Z,24.68
2022-07-30T03:44:00.543Z,24.78
2022-07-30T03:46:28.508Z,24.49
2022-07-30T03:48:58.024Z,24.55
2022-07-30T03:51:32.982Z,24.78
2022-07-30T03:54:03.190Z,24.72
2022-07-30T03:56:33.117Z,23.92
2022-07-30T03:59:05.257Z,24.12
2022-07-30T04:01:34.123Z,24.08
2022-07-30T04:04:35.695Z,24.13
2022-07-30T04:07:05.804Z,23.89
2022-07-30T04:09:35.604Z,23.96
2022-07-30T04:12:42.455Z,23.87
2022-07-30T04:16:05.841Z,22.37
2022-07-30T04:18:21.070Z,23.62
2022-07-30T04:20:55.120Z,23.25
2022-07-30T04:23:27.930Z,23.73
2022-07-30T04:25:57.503Z,23.73
2022-07-30T04:28:31.172Z,23.35
2022-07-30T04:31:06.187Z,23.72
2022-07-30T04:33:36.549Z,23.59
2022-07-30T04:36:11.950Z,23.81
2022-07-30T04:38:49.071Z,22.96
2022-07-30T04:41:19.253Z,24.07
2022-07-30T04:43:48.417Z,24.12
2022-07-30T04:46:20.985Z,23.99
2022-07-30T04:48:54.461Z,23.70
2022-07-30T04:51:53.680Z,22.21
2022-07-30T04:54:31.358Z,23.12
2022-07-30T04:57:19.706Z,23.77
2022-07-30T04:59:51.930Z,23.85
2022-07-30T05:02:19.965Z,24.09
2022-07-30T05:04:56.528Z,23.44
2022-07-30T05:07:28.162Z,23.12
2022-07-30T05:10:01.286Z,22.08
2022-07-30T05:12:46.757Z,24.16
2022-07-30T05:15:16.662Z,24.26
2022-07-30T05:18:01.493Z,23.37
2022-07-30T05:20:32.083Z,24.18
2022-07-30T05:23:14.179Z,22.17
2022-07-30T05:25:44.067Z,24.47
2022-07-30T05:28:12.629Z,24.54
2022-07-30T05:30:44.807Z,24.62
2022-07-30T05:33:17.128Z,24.53
2022-07-30T05:35:47.621Z,24.82
2022-07-30T05:38:18.959Z,24.07
2022-07-30T05:40:55.114Z,24.86
2022-07-30T05:43:26.368Z,24.38
2022-07-30T05:45:55.192Z,24.91
2022-07-30T05:48:26.815Z,24.94
2022-07-30T05:50:53.851Z,24.90
2022-07-30T05:53:24.040Z,25.11
2022-07-30T05:55:51.157Z,25.12
2022-07-30T05:58:19.508Z,24.81
2022-07-30T06:00:47.201Z,25.11
2022-07-30T06:03:15.354Z,25.05
2022-07-30T06:06:11.799Z,25.43
2022-07-30T06:08:38.818Z,25.52
2022-07-30T06:11:09.228Z,25.75
2022-07-30T06:13:39.286Z,26.20
2022-07-30T06:16:07.481Z,25.82
2022-07-30T06:18:35.512Z,26.37
2022-07-30T06:21:05.643Z,25.91
2022-07-30T06:23:58.109Z,27.02
2022-07-30T06:26:29.960Z,25.86
2022-07-30T06:29:13.561Z,27.43
2022-07-30T06:31:43.175Z,27.70
2022-07-30T06:34:10.862Z,27.40
2022-07-30T06:36:40.743Z,28.22
2022-07-30T06:39:08.005Z,28.27
2022-07-30T06:41:36.732Z,28.45
2022-07-30T06:44:04.173Z,28.34
2022-07-30T06:46:31.743Z,28.53
2022-07-30T06:49:00.501Z,27.11
2022-07-30T06:51:29.270Z,28.55
2022-07-30T06:54:07.644Z,28.01
2022-07-30T06:56:55.643Z,28.59
2022-07-30T06:59:59.453Z,28.70
2022-07-30T07:02:29.822Z,27.77
2022-07-30T07:04:57.320Z,29.42
2022-07-30T07:07:57.903Z,29.60
2022-07-30T07:10:30.799Z,28.96
2022-07-30T07:13:16.229Z,29.12
2022-07-30T07:15:46.681Z,29.97
2022-07-30T07:18:15.830Z,29.66
2022-07-30T07:20:46.907Z,28.39
2022-07-30T07:23:15.164Z,29.70
2022-07-30T07:25:49.617Z,30.07
2022-07-30T07:28:30.647Z,29.92
2022-07-30T07:31:01.843Z,27.62
2022-07-30T07:33:31.011Z,29.95
2022-07-30T07:36:03.316Z,29.66
2022-07-30T07:38:30.622Z,30.27
2022-07-30T07:41:03.157Z,30.36
2022-07-30T07:43:33.733Z,30.18
2022-07-30T07:46:17.309Z,28.74
2022-07-30T07:49:07.607Z,30.22
2022-07-30T07:51:47.738Z,29.52
2022-07-30T07:54:28.340Z,28.49
2022-07-30T07:56:56.796Z,28.79
2022-07-30T07:59:36.336Z,29.51
2022-07-30T08:02:11.300Z,29.87
2022-07-30T08:04:41.367Z,30.09
2022-07-30T08:07:12.660Z,28.53
2022-07-30T08:09:44.652Z,29.41
2022-07-30T08:12:13.701Z,30.48
2022-07-30T08:15:04.140Z,29.73
2022-07-30T08:18:06.094Z,28.78
2022-07-30T08:20:59.180Z,30.10
2022-07-30T08:23:28.242Z,29.85
2022-07-30T08:25:59.242Z,29.43
2022-07-30T08:28:35.983Z,30.36
2022-07-30T08:31:10.895Z,29.75
2022-07-30T08:33:48.501Z,30.55
2022-07-30T08:36:24.057Z,30.35
2022-07-30T08:38:55.516Z,30.20
2022-07-30T08:41:50.770Z,31.09
2022-07-30T08:44:21.964Z,30.57
2022-07-30T08:46:53.289Z,31.31
2022-07-30T08:49:23.503Z,31.19
2022-07-30T08:51:52.156Z,31.83
2022-07-30T08:54:46.867Z,31.95
2022-07-30T08:57:17.894Z,32.01
2022-07-30T09:00:00.198Z,32.41
2022-07-30T09:02:32.407Z,31.81
2022-07-30T09:05:00.152Z,31.84
2022-07-30T09:07:29.725Z,32.41
2022-07-30T09:09:58.587Z,32.31
2022-07-30T09:12:41.618Z,32.43
2022-07-30T09:15:26.135Z,32.33
2022-07-30T09:18:01.885Z,31.05
2022-07-30T09:20:33.866Z,32.16
2022-07-30T09:23:36.222Z,32.49
2022-07-30T09:26:06.444Z,32.50
2022-07-30T09:28:34.673Z,32.75
2022-07-30T09:31:09.401Z,33.64
2022-07-30T09:33:47.442Z,34.02
2022-07-30T09:36:30.377Z,33.80
2022-07-30T09:39:04.636Z,32.50
2022-07-30T09:41:42.083Z,31.21
2022-07-30T09:44:10.225Z,32.37
2022-07-30T09:47:00.437Z,34.82
2022-07-30T09:49:33.106Z,35.41
2022-07-30T09:52:10.851Z,33.31
2022-07-30T09:54:52.433Z,33.18
2022-07-30T09:57:25.577Z,33.72
2022-07-30T10:00:26.099Z,33.49
2022-07-30T10:02:58.395Z,33.94
2022-07-30T10:05:30.892Z,34.31
2022-07-30T10:08:03.462Z,33.76
2022-07-30T10:10:55.954Z,33.17
2022-07-30T10:13:32.440Z,32.18
2022-07-30T10:16:16.906Z,29.18
2022-07-30T10:18:56.175Z,29.32
2022-07-30T10:21:29.082Z,31.36
2022-07-30T10:24:27.486Z,31.47
2022-07-30T10:27:16.167Z,33.98
2022-07-30T10:29:48.398Z,34.84
2022-07-30T10:32:18.178Z,34.19
2022-07-30T10:35:05.786Z,34.27
2022-07-30T10:37:45.564Z,34.39
2022-07-30T10:41:02.760Z,34.92
2022-07-30T10:44:40.551Z,35.09
2022-07-30T10:47:14.557Z,31.60
2022-07-30T10:49:52.695Z,33.08
2022-07-30T10:53:06.794Z,34.18
2022-07-30T10:55:39.536Z,34.12
2022-07-30T10:58:15.860Z,33.73
2022-07-30T11:01:02.704Z,35.10
2022-07-30T11:03:41.042Z,35.30
2022-07-30T11:06:16.645Z,33.92
2022-07-30T11:08:57.111Z,35.48
2022-07-30T11:12:01.033Z,35.32
2022-07-30T11:14:47.501Z,36.85
2022-07-30T11:17:19.741Z,36.40
2022-07-30T11:20:25.766Z,35.72
2022-07-30T11:23:29.546Z,35.99
2022-07-30T11:26:05.213Z,36.69
2022-07-30T11:28:38.555Z,35.35
2022-07-30T11:50:00.014Z,33.86
2022-07-30T12:16:54.323Z,29.20
2022-07-30T12:19:22.638Z,32.51
2022-07-30T12:21:54.261Z,31.57
2022-07-30T12:24:33.260Z,31.77
2022-07-30T12:27:08.789Z,31.41
2022-07-30T12:35:08.080Z,31.20
2022-07-30T12:37:41.962Z,27.25
2022-07-30T12:43:01.923Z,27.90
2022-07-30T12:45:52.292Z,29.80
2022-07-30T12:48:28.512Z,31.08
2022-07-30T14:59:10.067Z,29.97
2022-07-30T15:45:18.437Z,33.38
2022-07-30T17:23:45.705Z,33.28
